createdAt,value
2023-03-22T00:00:19.331Z,16.52
2023-03-22T00:02:46.556Z,8.98
2023-03-22T00:05:13.734Z,7.55
2023-03-22T00:07:41.760Z,5.63
2023-03-22T00:10:09.345Z,14.52
2023-03-22T00:12:36.546Z,6.25
2023-03-22T00:15:04.102Z,8.02
2023-03-22T00:17:32.908Z,6.22
2023-03-22T00:20:00.093Z,9.40
2023-03-22T00:22:27.313Z,8.63
2023-03-22T00:24:54.599Z,13.15
2023-03-22T00:27:21.764Z,8.50
2023-03-22T00:29:49.272Z,9.52
2023-03-22T00:32:16.864Z,7.25
2023-03-22T00:34:44.158Z,9.90
2023-03-22T00:37:12.638Z,7.95
2023-03-22T00:39:40.008Z,15.55
2023-03-22T00:42:08.604Z,10.38
2023-03-22T00:44:36.205Z,11.23
2023-03-22T00:47:03.894Z,11.90
2023-03-22T00:49:35.221Z,9.15
2023-03-22T00:52:02.626Z,7.20
2023-03-22T00:54:29.789Z,13.05
2023-03-22T00:56:56.937Z,7.78
2023-03-22T00:59:24.200Z,14.95
2023-03-22T01:01:51.434Z,6.03
2023-03-22T01:04:25.957Z,12.20
2023-03-22T01:06:59.471Z,12.18
2023-03-22T01:09:29.669Z,7.70
2023-03-22T01:11:58.288Z,13.77
2023-03-22T01:14:26.289Z,8.77
2023-03-22T01:16:57.789Z,11.63
2023-03-22T01:19:27.515Z,12.68
2023-03-22T01:21:54.993Z,8.15
2023-03-22T01:24:22.608Z,9.52
2023-03-22T01:26:50.441Z,10.75
2023-03-22T01:29:17.924Z,7.93
2023-03-22T01:31:45.359Z,16.23
2023-03-22T01:34:13.469Z,10.15
2023-03-22T01:36:40.871Z,10.95
2023-03-22T01:39:08.326Z,10.77
2023-03-22T01:41:37.438Z,11.20
2023-03-22T01:44:18.459Z,7.95
2023-03-22T01:46:48.268Z,9.55
2023-03-22T01:49:20.523Z,14.98
2023-03-22T01:54:40.666Z,6.85
2023-03-22T01:57:21.137Z,12.77
2023-03-22T01:59:50.257Z,15.50
2023-03-22T02:02:30.941Z,12.68
2023-03-22T02:05:09.716Z,13.27
2023-03-22T02:07:38.331Z,17.67
2023-03-22T02:10:12.249Z,11.43
2023-03-22T02:12:50.494Z,8.50
2023-03-22T02:16:10.063Z,11.13
2023-03-22T02:19:24.285Z,13.30
2023-03-22T02:22:14.415Z,13.55
2023-03-22T02:25:15.455Z,13.13
2023-03-22T02:28:18.860Z,9.23
2023-03-22T02:31:04.585Z,10.20
2023-03-22T02:33:34.504Z,14.18
2023-03-22T02:36:34.755Z,9.73
2023-03-22T02:39:23.138Z,20.13
2023-03-22T02:41:56.602Z,15.25
2023-03-22T02:44:30.729Z,9.10
2023-03-22T02:47:21.665Z,8.77
2023-03-22T02:50:07.700Z,9.32
2023-03-22T02:52:40.514Z,12.60
2023-03-22T02:55:29.542Z,13.07
2023-03-22T02:58:31.217Z,15.27
2023-03-22T03:01:05.901Z,12.45
2023-03-22T03:03:37.798Z,5.78
2023-03-22T03:06:13.784Z,12.88
2023-03-22T03:08:42.280Z,11.20
2023-03-22T03:11:10.262Z,10.73
2023-03-22T03:13:37.545Z,18.15
2023-03-22T03:16:07.981Z,9.52
2023-03-22T03:19:00.314Z,7.60
2023-03-22T03:21:45.323Z,8.63
2023-03-22T03:24:46.876Z,6.95
2023-03-22T03:27:21.823Z,7.07
2023-03-22T03:30:04.477Z,8.43
2023-03-22T03:32:45.137Z,9.77
2023-03-22T03:35:26.242Z,7.47
2023-03-22T03:38:32.124Z,10.63
2023-03-22T03:41:03.824Z,11.48
2023-03-22T03:43:32.145Z,10.70
2023-03-22T03:46:00.520Z,12.95
2023-03-22T03:48:32.710Z,8.35
2023-03-22T03:51:01.883Z,10.55
2023-03-22T03:53:30.283Z,10.63
2023-03-22T03:55:57.780Z,9.23
2023-03-22T03:58:27.204Z,11.88
2023-03-22T04:00:54.425Z,12.50
2023-03-22T04:03:35.459Z,8.48
2023-03-22T04:06:22.920Z,9.35
2023-03-22T04:11:28.514Z,6.40
2023-03-22T04:13:59.954Z,7.50
2023-03-22T04:16:27.081Z,6.28
2023-03-22T04:18:54.354Z,7.35
2023-03-22T04:21:21.827Z,6.13
2023-03-22T04:23:56.432Z,4.88
2023-03-22T04:26:26.217Z,5.65
2023-03-22T04:29:08.013Z,5.95
2023-03-22T04:31:39.145Z,4.25
2023-03-22T04:34:17.768Z,4.60
2023-03-22T04:37:04.982Z,6.15
2023-03-22T04:39:35.357Z,3.83
2023-03-22T04:42:22.183Z,4.90
2023-03-22T04:44:56.167Z,5.70
2023-03-22T04:47:23.324Z,6.65
2023-03-22T04:49:50.991Z,2.83
2023-03-22T04:52:18.314Z,7.07
2023-03-22T04:54:52.322Z,5.00
2023-03-22T04:57:19.576Z,5.30
2023-03-22T04:59:48.540Z,3.92
2023-03-22T05:02:16.829Z,4.32
2023-03-22T05:04:44.531Z,6.78
2023-03-22T05:07:31.648Z,5.05
2023-03-22T05:10:01.615Z,6.18
2023-03-22T05:12:29.175Z,5.85
2023-03-22T05:15:01.209Z,4.82
2023-03-22T05:17:34.010Z,4.28
2023-03-22T05:20:09.325Z,3.63
2023-03-22T05:22:40.775Z,5.22
2023-03-22T05:25:10.832Z,2.70
2023-03-22T05:27:40.699Z,2.45
2023-03-22T05:30:34.274Z,6.75
2023-03-22T05:33:09.534Z,3.22
2023-03-22T05:35:42.823Z,2.47
2023-03-22T05:38:11.277Z,6.80
2023-03-22T05:40:43.949Z,5.00
2023-03-22T05:43:11.708Z,8.85
2023-03-22T05:45:43.239Z,3.90
2023-03-22T05:48:30.312Z,3.28
2023-03-22T05:50:57.609Z,5.35
2023-03-22T05:53:24.982Z,5.72
2023-03-22T05:56:12.952Z,6.78
2023-03-22T05:58:42.484Z,8.52
2023-03-22T06:01:13.418Z,4.13
2023-03-22T06:03:46.619Z,7.60
2023-03-22T06:06:36.475Z,7.82
2023-03-22T06:09:17.262Z,6.80
2023-03-22T06:11:46.831Z,6.13
2023-03-22T06:14:15.971Z,4.43
2023-03-22T06:16:57.283Z,6.28
2023-03-22T06:19:25.730Z,4.18
2023-03-22T06:21:54.785Z,6.72
2023-03-22T06:24:24.413Z,4.30
2023-03-22T06:26:51.646Z,4.38
2023-03-22T06:29:18.814Z,4.50
2023-03-22T06:31:47.631Z,3.63
2023-03-22T06:34:14.774Z,4.63
2023-03-22T06:36:42.923Z,6.05
2023-03-22T06:39:17.322Z,2.65
2023-03-22T06:41:47.441Z,5.55
2023-03-22T06:44:15.038Z,2.28
2023-03-22T06:47:03.646Z,4.25
2023-03-22T06:49:56.728Z,4.93
2023-03-22T06:52:28.245Z,2.42
2023-03-22T06:54:56.996Z,3.83
2023-03-22T06:57:24.777Z,6.32
2023-03-22T06:59:51.925Z,6.10
2023-03-22T07:02:19.101Z,6.82
2023-03-22T07:05:06.585Z,4.20
2023-03-22T07:07:33.799Z,4.10
2023-03-22T07:10:01.015Z,6.75
2023-03-22T07:12:28.396Z,4.30
2023-03-22T07:14:56.235Z,5.43
2023-03-22T07:17:41.469Z,3.97
2023-03-22T07:20:09.254Z,5.72
2023-03-22T07:22:36.457Z,5.60
2023-03-22T07:25:04.687Z,6.95
2023-03-22T07:27:33.436Z,8.73
2023-03-22T07:30:01.130Z,10.50
2023-03-22T07:32:29.926Z,9.02
2023-03-22T07:35:16.796Z,8.85
2023-03-22T07:37:44.716Z,7.25
2023-03-22T07:40:21.329Z,9.75
2023-03-22T07:42:49.943Z,6.45
2023-03-22T07:45:23.453Z,9.38
2023-03-22T07:48:23.657Z,9.77
2023-03-22T07:51:19.318Z,14.63
2023-03-22T07:53:47.255Z,9.98
2023-03-22T07:56:14.857Z,7.15
2023-03-22T07:58:42.251Z,9.05
2023-03-22T08:01:10.075Z,11.93
2023-03-22T08:06:40.471Z,13.10
2023-03-22T08:09:08.558Z,11.82
2023-03-22T08:11:36.725Z,10.38
2023-03-22T08:14:04.273Z,9.35
2023-03-22T08:16:34.575Z,8.50
2023-03-22T08:19:03.625Z,8.75
2023-03-22T08:21:34.803Z,9.48
2023-03-22T08:24:02.942Z,15.35
2023-03-22T08:26:59.618Z,6.82
2023-03-22T08:29:34.083Z,10.20
2023-03-22T08:32:03.982Z,5.82
2023-03-22T08:34:31.575Z,11.13
2023-03-22T08:36:58.777Z,9.02
2023-03-22T08:39:27.099Z,9.68
2023-03-22T08:42:12.366Z,9.65
2023-03-22T08:44:39.707Z,11.43
2023-03-22T08:47:06.894Z,8.48
2023-03-22T08:49:34.736Z,4.20
2023-03-22T08:52:09.492Z,6.38
2023-03-22T08:54:44.163Z,2.90
2023-03-22T08:57:40.087Z,5.72
2023-03-22T09:00:48.113Z,5.80
2023-03-22T09:03:36.294Z,7.00
2023-03-22T09:06:03.790Z,4.32
2023-03-22T09:08:36.237Z,3.70
2023-03-22T09:11:09.915Z,2.60
2023-03-22T09:13:37.421Z,6.22
2023-03-22T09:16:06.816Z,4.78
2023-03-22T09:18:34.214Z,3.15
2023-03-22T09:21:08.614Z,6.35
2023-03-22T09:23:47.720Z,5.05
2023-03-22T09:26:17.030Z,4.32
2023-03-22T09:28:47.576Z,5.28
2023-03-22T09:31:15.535Z,4.28
2023-03-22T09:33:43.966Z,4.97
2023-03-22T09:36:14.659Z,2.22
2023-03-22T09:38:42.184Z,6.68
2023-03-22T09:41:18.425Z,4.22
2023-03-22T09:43:57.384Z,4.72
2023-03-22T09:46:37.396Z,4.22
2023-03-22T09:49:26.326Z,4.13
2023-03-22T09:51:55.014Z,2.25
2023-03-22T09:54:37.526Z,3.25
2023-03-22T09:59:57.218Z,2.47
2023-03-22T10:02:59.484Z,3.58
2023-03-22T10:05:51.657Z,4.22
2023-03-22T10:08:49.567Z,1.50
2023-03-22T10:11:46.752Z,1.55
2023-03-22T10:14:23.616Z,1.73
2023-03-22T10:16:56.399Z,3.75
2023-03-22T10:19:27.453Z,1.70
2023-03-22T10:21:56.792Z,4.70
2023-03-22T10:24:46.158Z,1.73
2023-03-22T10:27:19.449Z,3.88
2023-03-22T10:30:08.050Z,4.18
2023-03-22T10:32:58.382Z,2.40
2023-03-22T10:35:26.375Z,1.85
2023-03-22T10:37:56.317Z,2.60
2023-03-22T10:40:35.796Z,3.63
2023-03-22T10:43:23.011Z,1.95
2023-03-22T10:45:52.989Z,4.07
2023-03-22T10:48:33.257Z,5.38
2023-03-22T10:51:02.735Z,0.95
2023-03-22T10:53:42.496Z,1.60
2023-03-22T10:56:15.329Z,1.38
2023-03-22T10:58:43.138Z,1.05
2023-03-22T11:01:14.112Z,3.55
2023-03-22T11:03:50.305Z,2.65
2023-03-22T11:06:24.493Z,1.92
2023-03-22T11:08:58.917Z,6.85
2023-03-22T11:11:31.006Z,3.13
2023-03-22T11:14:07.013Z,2.38
2023-03-22T11:16:54.083Z,1.83
2023-03-22T11:19:34.197Z,2.83
2023-03-22T11:22:04.834Z,3.25
2023-03-22T11:24:34.464Z,2.03
2023-03-22T11:27:24.373Z,3.25
2023-03-22T11:29:57.045Z,4.65
2023-03-22T11:32:39.574Z,4.35
2023-03-22T11:37:48.568Z,2.15
2023-03-22T11:40:20.976Z,6.63
2023-03-22T11:45:25.498Z,2.95
2023-03-22T11:47:55.902Z,5.82
2023-03-22T11:50:29.888Z,1.17
2023-03-22T11:52:57.409Z,3.80
2023-03-22T11:55:26.409Z,2.92
2023-03-22T11:57:55.978Z,2.72
2023-03-22T12:00:29.940Z,1.98
2023-03-22T12:03:14.461Z,1.23
2023-03-22T12:05:46.295Z,1.80
2023-03-22T12:08:33.073Z,2.47
2023-03-22T12:11:18.058Z,1.25
2023-03-22T12:14:00.063Z,0.63
2023-03-22T12:16:36.349Z,1.35
2023-03-22T12:19:19.961Z,0.47
2023-03-22T12:21:50.102Z,0.40
2023-03-22T12:24:30.364Z,0.65
2023-03-22T12:27:15.077Z,0.52
2023-03-22T12:29:53.595Z,1.65
2023-03-22T12:32:28.860Z,1.27
2023-03-22T12:35:05.468Z,0.52
2023-03-22T12:37:48.301Z,0.63
2023-03-22T12:40:27.256Z,0.60
2023-03-22T12:43:13.935Z,1.98
2023-03-22T12:45:49.047Z,1.38
2023-03-22T12:48:25.461Z,1.08
2023-03-22T12:51:03.350Z,0.47
2023-03-22T12:53:47.743Z,2.17
2023-03-22T12:56:22.066Z,2.47
2023-03-22T12:58:53.843Z,1.85
2023-03-22T13:01:37.772Z,0.75
2023-03-22T13:04:36.242Z,2.15
2023-03-22T13:07:16.593Z,4.75
2023-03-22T13:09:49.232Z,1.23
2023-03-22T13:12:19.147Z,2.00
2023-03-22T13:14:52.216Z,4.38
2023-03-22T13:17:25.831Z,3.85
2023-03-22T13:20:14.853Z,6.07
2023-03-22T13:22:42.113Z,1.92
2023-03-22T13:25:13.010Z,3.88
2023-03-22T13:28:09.579Z,2.60
2023-03-22T13:30:49.308Z,4.60
2023-03-22T13:33:28.906Z,2.92
2023-03-22T13:36:15.836Z,5.28
2023-03-22T13:38:43.665Z,4.43
2023-03-22T13:41:16.886Z,6.15
2023-03-22T13:43:47.954Z,4.30
2023-03-22T13:46:19.978Z,4.05
2023-03-22T13:48:47.877Z,7.93
2023-03-22T13:51:27.903Z,6.60
2023-03-22T13:53:58.369Z,3.90
2023-03-22T13:56:44.532Z,7.10
2023-03-22T13:59:13.563Z,10.68
2023-03-22T14:01:58.957Z,10.27
2023-03-22T14:04:39.520Z,7.53
2023-03-22T14:07:37.402Z,10.05
2023-03-22T14:10:16.978Z,11.52
2023-03-22T14:12:50.598Z,11.52
2023-03-22T14:15:25.280Z,10.80
2023-03-22T14:18:26.948Z,11.00
2023-03-22T14:21:00.490Z,11.15
